Time;durP1;ratioP1;P1;durP2;ratioP2;P2;SDS_P1;SDS_P2;PMS_P1;PMS_P2;Temp;Humidity;BMP_temperature;BMP_pressure;BME280_temperature;BME280_humidity;BME280_pressure;Samples;Min_cycle;Max_cycle;Signal;HPM_P1;HPM_P2
2023/02/08 00:02:21;;;;;;;50.90;19.50;;;;;;;1.65;52.68;102673.04;107501;1262;60721;-66
2023/02/08 00:04:49;;;;;;;54.30;21.20;;;;;;;1.77;51.24;102675.45;107450;1260;61347;-66
2023/02/08 00:07:17;;;;;;;50.10;19.90;;;;;;;2.13;50.40;102676.84;107492;1263;73057;-65
2023/02/08 00:09:45;;;;;;;47.00;19.30;;;;;;;2.38;49.09;102673.46;108202;1253;71253;-65
2023/02/08 00:12:15;;;;;;;53.20;20.20;;;;;;;2.40;47.60;102675.42;108189;1256;73494;-66
2023/02/08 00:14:43;;;;;;;49.00;18.70;;;;;;;2.33;46.56;102680.02;108212;1253;62402;-66
2023/02/08 00:17:11;;;;;;;45.00;18.20;;;;;;;2.25;45.96;102681.10;108173;1253;60782;-67
2023/02/08 00:19:40;;;;;;;42.30;17.00;;;;;;;2.39;45.15;102688.73;108168;1253;73369;-66
2023/02/08 00:22:08;;;;;;;45.70;18.60;;;;;;;2.27;45.07;102689.86;108173;1253;71612;-66
2023/02/08 00:24:37;;;;;;;43.50;17.70;;;;;;;2.12;44.88;102686.52;108209;1253;73526;-66
2023/02/08 00:27:05;;;;;;;44.30;17.70;;;;;;;2.02;45.40;102691.65;108202;1253;62102;-65
2023/02/08 00:29:33;;;;;;;38.30;15.90;;;;;;;2.14;44.80;102697.02;108208;1253;61502;-67
2023/02/08 00:32:01;;;;;;;42.20;17.50;;;;;;;2.24;44.60;102704.66;108200;1253;74323;-65
2023/02/08 00:34:31;;;;;;;41.20;16.20;;;;;;;2.00;44.75;102703.01;108053;1253;70588;-66
2023/02/08 00:37:00;;;;;;;45.60;18.20;;;;;;;2.01;44.94;102707.41;108139;1253;74241;-65
2023/02/08 00:39:28;;;;;;;39.90;16.60;;;;;;;1.95;45.15;102707.48;108003;1254;61295;-65
2023/02/08 00:41:56;;;;;;;44.90;17.90;;;;;;;1.95;44.85;102706.11;107991;1256;59960;-66
2023/02/08 00:44:24;;;;;;;38.30;17.10;;;;;;;1.94;44.95;102706.59;107912;1255;74303;-64
2023/02/08 00:46:53;;;;;;;44.90;18.50;;;;;;;1.92;44.86;102707.04;107996;1256;69432;-66
2023/02/08 00:49:21;;;;;;;47.30;17.50;;;;;;;1.96;44.23;102705.65;107966;1255;74175;-66
2023/02/08 00:51:49;;;;;;;43.90;17.60;;;;;;;1.81;44.21;102713.36;107969;1254;59642;-66
2023/02/08 00:54:19;;;;;;;44.10;17.50;;;;;;;1.55;44.64;102718.16;108010;1255;61256;-66
2023/02/08 00:56:47;;;;;;;36.80;15.90;;;;;;;1.69;44.61;102719.99;107994;1260;73057;-65
2023/02/08 00:59:15;;;;;;;55.20;19.80;;;;;;;1.58;44.70;102726.47;107939;1256;69858;-64
2023/02/08 01:01:45;;;;;;;49.80;20.40;;;;;;;1.67;44.51;102729.42;107947;1255;74536;-65
2023/02/08 01:04:13;;;;;;;52.20;19.10;;;;;;;1.92;43.73;102729.02;107993;1256;59735;-66
2023/02/08 01:06:41;;;;;;;38.80;16.40;;;;;;;2.10;43.18;102722.13;107978;1255;61581;-64
2023/02/08 01:09:11;;;;;;;45.30;16.80;;;;;;;2.04;43.18;102729.33;107986;1256;72370;-66
2023/02/08 01:11:44;;;;;;;38.60;16.60;;;;;;;1.90;43.14;102731.23;107943;1255;70218;-66
2023/02/08 01:14:12;;;;;;;48.60;19.20;;;;;;;1.91;43.03;102738.17;107954;1255;72709;-67
2023/02/08 01:16:41;;;;;;;49.00;18.90;;;;;;;1.87;42.92;102740.44;107941;1256;62265;-67
2023/02/08 01:19:09;;;;;;;52.20;18.60;;;;;;;1.97;42.38;102742.78;108039;1255;61321;-65
2023/02/08 01:21:39;;;;;;;41.20;16.60;;;;;;;1.87;42.55;102746.50;108010;1256;74252;-65
2023/02/08 01:24:07;;;;;;;53.30;19.70;;;;;;;1.73;42.99;102752.02;107929;1257;69694;-64
2023/02/08 01:26:36;;;;;;;52.00;19.10;;;;;;;1.59;44.13;102755.44;107947;1256;73879;-66
2023/02/08 01:29:06;;;;;;;51.90;20.10;;;;;;;1.58;45.06;102760.56;107943;1256;62275;-65
2023/02/08 01:31:37;;;;;;;49.90;20.00;;;;;;;1.98;45.73;102764.45;107972;1256;59674;-66
2023/02/08 01:34:05;;;;;;;57.30;19.90;;;;;;;2.43;45.84;102760.67;108001;1256;74239;-66
2023/02/08 01:36:34;;;;;;;47.30;19.30;;;;;;;2.64;45.72;102762.88;107882;1260;69982;-63
2023/02/08 01:39:03;;;;;;;49.20;19.70;;;;;;;3.12;45.38;102766.02;107916;1254;72545;-65
2023/02/08 01:41:36;;;;;;;50.50;19.30;;;;;;;3.42;45.74;102771.08;107917;1258;62421;-65
2023/02/08 01:44:11;;;;;;;48.30;17.90;;;;;;;3.59;45.29;102784.16;107916;1255;61588;-66
2023/02/08 01:46:44;;;;;;;45.80;18.20;;;;;;;4.02;45.30;102786.09;107873;1256;74049;-64
2023/02/08 01:49:17;;;;;;;46.70;17.80;;;;;;;4.64;43.75;102789.95;107905;1254;70624;-65
2023/02/08 01:51:58;;;;;;;43.20;17.30;;;;;;;4.58;42.25;102792.73;107883;1256;73867;-66
2023/02/08 01:54:29;;;;;;;40.50;17.90;;;;;;;4.41;40.35;102792.02;107917;1256;61424;-66
2023/02/08 01:56:57;;;;;;;;;;;;;;;4.43;39.22;102792.44;107716;1255;61362;-66
2023/02/08 01:59:27;;;;;;;41.30;15.20;;;;;;;4.43;38.57;102792.46;107879;1256;74032;-66
2023/02/08 02:01:56;;;;;;;53.50;18.70;;;;;;;4.09;38.42;102796.08;107859;1256;70739;-65
2023/02/08 02:04:24;;;;;;;38.00;17.10;;;;;;;3.78;38.63;102793.85;107917;1256;71401;-66
2023/02/08 02:06:54;;;;;;;41.80;16.70;;;;;;;3.49;38.95;102795.79;107858;1255;60071;-63
2023/02/08 02:09:28;;;;;;;50.30;18.20;;;;;;;3.39;38.63;102794.74;107837;1256;59787;-66
2023/02/08 02:11:56;;;;;;;48.10;17.40;;;;;;;2.90;39.06;102793.52;107944;1255;73722;-65
2023/02/08 02:14:24;;;;;;;39.40;16.40;;;;;;;3.05;38.89;102795.80;107963;1256;71184;-65
2023/02/08 02:16:54;;;;;;;46.80;18.10;;;;;;;3.12;38.88;102799.02;107935;1258;73740;-65
2023/02/08 02:19:40;;;;;;;46.40;19.00;;;;;;;3.04;38.99;102801.34;107901;1257;61273;-65
2023/02/08 02:22:47;;;;;;;43.60;17.20;;;;;;;2.94;39.43;102809.99;107968;1256;60222;-66
2023/02/08 02:25:47;;;;;;;51.10;17.90;;;;;;;3.16;39.12;102811.14;107686;1256;74128;-65
2023/02/08 02:28:37;;;;;;;47.30;18.20;;;;;;;3.04;39.27;102805.47;107900;1256;71474;-66
2023/02/08 02:31:32;;;;;;;49.90;19.90;;;;;;;2.85;39.71;102811.53;107940;1256;73619;-64
2023/02/08 02:34:08;;;;;;;37.90;16.00;;;;;;;2.71;39.95;102818.30;107842;1256;60852;-65
2023/02/08 02:36:41;;;;;;;44.30;19.60;;;;;;;2.63;40.21;102817.98;107890;1256;61119;-65
2023/02/08 02:39:39;;;;;;;61.50;21.10;;;;;;;2.61;40.08;102826.23;107947;1256;73008;-66
2023/02/08 02:45:17;;;;;;;40.10;14.80;;;;;;;2.66;40.14;102825.77;107908;1256;73943;-65
2023/02/08 02:48:04;;;;;;;52.20;19.50;;;;;;;2.71;40.33;102831.48;107877;1258;62424;-65
2023/02/08 02:50:36;;;;;;;51.80;19.70;;;;;;;2.45;40.52;102836.73;107907;1256;61258;-66
2023/02/08 02:53:35;;;;;;;46.40;18.10;;;;;;;2.55;40.76;102841.29;107900;1256;74300;-65
2023/02/08 02:56:09;;;;;;;47.10;18.40;;;;;;;2.99;39.92;102846.27;107888;1256;70387;-66
2023/02/08 02:58:37;;;;;;;51.40;19.80;;;;;;;3.02;39.53;102842.73;107887;1256;73519;-65
2023/02/08 03:01:05;;;;;;;44.30;18.70;;;;;;;2.80;39.60;102845.36;107602;1256;60098;-66
2023/02/08 03:03:34;;;;;;;53.00;20.90;;;;;;;3.05;39.23;102847.55;107967;1254;61542;-66
2023/02/08 03:06:05;;;;;;;45.00;17.20;;;;;;;2.39;39.66;102850.85;107972;1256;74267;-66
2023/02/08 03:09:07;;;;;;;50.10;18.50;;;;;;;2.36;39.96;102856.11;107998;1257;71525;-65
2023/02/08 03:11:35;;;;;;;47.30;19.60;;;;;;;2.73;39.12;102864.02;107877;1258;72220;-64
2023/02/08 03:14:14;;;;;;;52.50;19.00;;;;;;;2.57;38.82;102865.11;107887;1255;61883;-65
2023/02/08 03:16:57;;;;;;;53.60;18.60;;;;;;;2.58;38.83;102866.02;107874;1258;61395;-65
2023/02/08 03:19:38;;;;;;;50.20;20.10;;;;;;;2.30;38.94;102866.28;107863;1256;74005;-65
2023/02/08 03:22:13;;;;;;;50.10;18.70;;;;;;;2.27;38.81;102867.72;107936;1256;70590;-65
2023/02/08 03:24:56;;;;;;;52.40;20.40;;;;;;;2.26;38.62;102865.95;107905;1256;73506;-66
2023/02/08 03:27:45;;;;;;;43.10;18.80;;;;;;;2.60;38.22;102861.42;107903;1254;62284;-65
2023/02/08 03:30:43;;;;;;;57.00;22.80;;;;;;;2.61;38.01;102864.73;107851;1256;61055;-67
2023/02/08 03:33:19;;;;;;;58.50;22.50;;;;;;;2.28;38.46;102870.55;107844;1260;74411;-66
2023/02/08 03:35:51;;;;;;;47.90;18.10;;;;;;;1.88;39.22;102877.71;107921;1256;70599;-64
2023/02/08 03:38:26;;;;;;;52.40;20.20;;;;;;;1.65;39.52;102884.84;107933;1258;73998;-64
2023/02/08 03:40:55;;;;;;;49.70;19.10;;;;;;;2.06;39.07;102880.70;107942;1256;60624;-65
2023/02/08 03:43:32;;;;;;;49.30;17.90;;;;;;;1.99;38.97;102882.35;107944;1256;59706;-65
2023/02/08 03:46:20;;;;;;;42.50;16.60;;;;;;;2.01;38.69;102879.99;107951;1256;73369;-64
2023/02/08 03:48:51;;;;;;;39.80;17.10;;;;;;;1.94;39.04;102885.58;107897;1256;71662;-64
2023/02/08 03:51:19;;;;;;;45.90;17.30;;;;;;;1.90;38.69;102888.21;107871;1256;71584;-66
2023/02/08 03:53:47;;;;;;;34.70;15.40;;;;;;;2.21;38.25;102885.17;107834;1256;62188;-66
2023/02/08 03:56:38;;;;;;;44.70;17.20;;;;;;;2.11;38.60;102888.89;107886;1256;61522;-65
2023/02/08 03:59:08;;;;;;;43.30;16.80;;;;;;;1.88;38.80;102898.33;108002;1258;74201;-66
2023/02/08 04:01:48;;;;;;;42.10;14.90;;;;;;;1.78;38.80;102906.57;108027;1256;70038;-66
2023/02/08 04:04:17;;;;;;;;;;;;;;;2.14;38.25;102912.44;107947;1259;72557;-65
2023/02/08 04:06:45;;;;;;;51.40;18.00;;;;;;;2.14;37.86;102915.54;107873;1260;61848;-65
2023/02/08 04:09:13;;;;;;;44.20;17.40;;;;;;;1.92;38.26;102918.42;107967;1254;61761;-66
2023/02/08 04:11:42;;;;;;;50.00;18.40;;;;;;;1.88;38.80;102917.55;107989;1258;75153;-65
2023/02/08 04:14:10;;;;;;;51.30;19.10;;;;;;;2.32;39.05;102920.44;107935;1258;71144;-65
2023/02/08 04:16:39;;;;;;;58.50;19.90;;;;;;;2.94;38.44;102923.98;107966;1256;72852;-67
2023/02/08 04:19:07;;;;;;;59.40;19.80;;;;;;;3.25;38.31;102924.29;108018;1254;62132;-66
2023/02/08 04:21:35;;;;;;;44.10;18.40;;;;;;;3.45;38.23;102924.52;107958;1254;60331;-65
2023/02/08 04:24:03;;;;;;;50.90;19.60;;;;;;;3.67;37.94;102931.08;107959;1255;75066;-65
2023/02/08 04:26:32;;;;;;;48.00;18.00;;;;;;;3.64;37.93;102933.76;108032;1256;71257;-64
2023/02/08 04:29:00;;;;;;;51.40;20.30;;;;;;;3.63;37.73;102945.52;108016;1256;73672;-65
2023/02/08 04:31:28;;;;;;;46.00;18.00;;;;;;;4.03;37.25;102942.25;108007;1254;61123;-66
2023/02/08 04:33:57;;;;;;;46.80;17.80;;;;;;;4.23;37.08;102946.25;107982;1254;61380;-67
2023/02/08 04:36:25;;;;;;;50.00;18.30;;;;;;;4.37;36.88;102944.83;108026;1255;73780;-66
2023/02/08 04:38:53;;;;;;;48.10;18.00;;;;;;;4.33;36.20;102948.17;108085;1255;71267;-66
2023/02/08 04:41:22;;;;;;;44.70;16.70;;;;;;;4.08;35.85;102953.55;107972;1259;71817;-67
2023/02/08 04:43:50;;;;;;;40.60;15.60;;;;;;;3.86;35.77;102954.35;107948;1254;62425;-67
2023/02/08 04:46:18;;;;;;;45.40;18.60;;;;;;;4.02;35.00;102953.51;107980;1254;60631;-66
2023/02/08 04:48:46;;;;;;;46.20;17.80;;;;;;;3.84;34.96;102957.59;107998;1254;74097;-66
2023/02/08 04:51:14;;;;;;;51.40;18.30;;;;;;;3.62;34.97;102959.52;107980;1258;69143;-65
2023/02/08 04:53:43;;;;;;;44.30;17.00;;;;;;;3.19;35.41;102962.63;108045;1258;73552;-66
2023/02/08 04:56:11;;;;;;;48.90;17.70;;;;;;;3.12;35.33;102964.97;108049;1254;62167;-65
2023/02/08 04:58:39;;;;;;;45.90;16.60;;;;;;;3.10;34.97;102963.84;108019;1254;60702;-65
2023/02/08 05:01:09;;;;;;;44.30;17.20;;;;;;;2.58;35.76;102967.65;107980;1258;73661;-65
2023/02/08 05:03:37;;;;;;;46.00;16.50;;;;;;;2.93;36.35;102968.91;108011;1258;69443;-65
2023/02/08 05:06:06;;;;;;;37.60;17.30;;;;;;;2.95;37.00;102974.00;108018;1254;73575;-64
2023/02/08 05:08:35;;;;;;;38.50;15.90;;;;;;;3.34;36.54;102971.02;108044;1257;62089;-67
2023/02/08 05:11:03;;;;;;;43.60;16.50;;;;;;;3.42;36.32;102975.16;108000;1255;61474;-65
2023/02/08 05:13:32;;;;;;;48.10;17.50;;;;;;;3.71;35.74;102977.44;108046;1258;74837;-68
2023/02/08 05:16:01;;;;;;;47.30;16.30;;;;;;;3.32;36.01;102986.55;108001;1258;71363;-66
2023/02/08 05:18:30;;;;;;;46.00;17.30;;;;;;;3.17;35.91;102988.61;107982;1258;73619;-65
2023/02/08 05:20:59;;;;;;;47.30;17.10;;;;;;;3.09;35.81;102994.20;107995;1257;62145;-65
2023/02/08 05:23:28;;;;;;;41.40;17.00;;;;;;;2.92;35.78;102998.52;108086;1255;61307;-66
2023/02/08 05:25:56;;;;;;;43.60;16.60;;;;;;;3.25;35.28;103001.23;108042;1254;74187;-66
2023/02/08 05:28:25;;;;;;;43.80;16.20;;;;;;;3.27;35.00;103003.05;108027;1254;70780;-66
2023/02/08 05:30:54;;;;;;;42.70;17.40;;;;;;;3.15;34.92;103009.69;107982;1255;73678;-66
2023/02/08 05:33:22;;;;;;;44.20;16.20;;;;;;;3.34;34.63;103013.05;107967;1254;60430;-65
2023/02/08 05:35:50;;;;;;;50.20;19.00;;;;;;;3.60;34.27;103014.57;108103;1255;60564;-65
2023/02/08 05:38:18;;;;;;;43.90;17.70;;;;;;;3.41;34.43;103017.13;107990;1254;75062;-66
2023/02/08 05:40:47;;;;;;;44.80;16.30;;;;;;;3.38;34.45;103017.18;107979;1260;72004;-66
2023/02/08 05:43:14;;;;;;;43.00;18.10;;;;;;;3.11;34.51;103018.38;107940;1259;73059;-65
2023/02/08 05:45:42;;;;;;;53.00;17.00;;;;;;;2.98;34.31;103016.99;107966;1254;62034;-65
2023/02/08 05:48:11;;;;;;;40.30;15.40;;;;;;;2.71;34.39;103017.14;107968;1254;61411;-65
2023/02/08 05:50:39;;;;;;;52.10;18.80;;;;;;;2.58;34.57;103020.73;108025;1254;74920;-66
2023/02/08 05:53:09;;;;;;;48.10;18.80;;;;;;;2.73;34.89;103023.96;108000;1255;71304;-66
2023/02/08 05:55:38;;;;;;;51.30;18.50;;;;;;;2.88;35.80;103023.55;108061;1258;73855;-65
2023/02/08 05:58:06;;;;;;;49.90;19.20;;;;;;;3.10;36.23;103028.98;107917;1260;61324;-66
2023/02/08 06:00:34;;;;;;;50.90;20.00;;;;;;;3.38;36.73;103029.17;108003;1255;61581;-66
2023/02/08 08:02:22;;;;;;;39.90;21.10;;;;;;;4.63;40.75;103072.36;105361;1290;613145;-83
2023/02/08 08:04:49;;;;;;;41.90;22.00;;;;;;;7.15;37.35;103067.52;107566;1267;59914;-84
2023/02/08 08:07:18;;;;;;;45.90;23.40;;;;;;;8.93;34.71;103059.77;107652;1267;61396;-84
2023/02/08 08:09:47;;;;;;;46.20;23.90;;;;;;;10.70;31.68;103057.19;107681;1266;73142;-84
2023/02/08 08:12:14;;;;;;;41.40;22.00;;;;;;;11.87;29.28;103054.68;107572;1266;69566;-84
2023/02/08 08:14:42;;;;;;;36.50;19.70;;;;;;;12.66;28.18;103055.25;107512;1260;493118;-85
2023/02/08 08:17:11;;;;;;;40.40;21.30;;;;;;;13.16;26.67;103056.69;108011;1260;59094;-84
2023/02/08 08:19:40;;;;;;;35.20;18.00;;;;;;;13.52;26.01;103058.58;108329;1257;60992;-84
2023/02/08 08:22:08;;;;;;;39.90;21.10;;;;;;;13.62;24.94;103058.90;108090;1257;71914;-84
2023/02/08 08:24:36;;;;;;;46.50;26.30;;;;;;;13.71;25.09;103057.46;107996;1257;69433;-85
2023/02/08 08:27:04;;;;;;;76.60;38.60;;;;;;;14.01;24.52;103057.69;108310;1255;73607;-86
2023/02/08 08:29:35;;;;;;;44.60;23.70;;;;;;;14.18;24.37;103059.89;109122;1255;58819;-83
2023/02/08 08:32:03;;;;;;;77.90;33.90;;;;;;;14.13;24.70;103064.87;108939;1257;60291;-83
2023/02/08 08:34:30;;;;;;;54.40;28.80;;;;;;;14.73;23.61;103063.81;109108;1256;73009;-84
2023/02/08 08:36:59;;;;;;;36.30;18.40;;;;;;;14.66;22.83;103064.21;109070;1257;69476;-83
2023/02/08 08:39:27;;;;;;;31.20;16.90;;;;;;;14.71;23.22;103068.79;109103;1255;72803;-84
2023/02/08 08:41:59;;;;;;;32.50;16.30;;;;;;;15.55;23.08;103069.62;108922;1257;59395;-84
2023/02/08 08:44:27;;;;;;;27.60;15.60;;;;;;;16.09;22.56;103068.09;108888;1259;61226;-82
2023/02/08 08:46:58;;;;;;;31.30;16.60;;;;;;;16.39;22.26;103063.77;108779;1255;73165;-84
2023/02/08 08:49:27;;;;;;;30.60;17.30;;;;;;;16.95;22.02;103065.92;108886;1257;70469;-84
2023/02/08 08:51:55;;;;;;;34.10;19.90;;;;;;;17.11;21.06;103068.13;108872;1255;72571;-85
2023/02/08 08:54:24;;;;;;;30.50;17.20;;;;;;;17.20;21.34;103072.41;108682;1257;60290;-85
2023/02/08 08:56:51;;;;;;;33.60;18.00;;;;;;;17.87;21.14;103072.73;108465;1256;61424;-84
2023/02/08 08:59:20;;;;;;;28.50;15.90;;;;;;;18.55;20.18;103070.16;109060;1256;73290;-85
2023/02/08 09:01:48;;;;;;;35.20;19.20;;;;;;;18.71;19.67;103069.25;108279;1257;70356;-84
2023/02/08 09:04:15;;;;;;;38.40;19.00;;;;;;;18.53;19.45;103067.54;108332;1257;72677;-84
2023/02/08 09:06:44;;;;;;;26.90;15.10;;;;;;;18.00;19.70;103066.44;108480;1257;59473;-85
2023/02/08 09:09:13;;;;;;;25.30;15.40;;;;;;;18.19;19.88;103053.40;108175;1257;60013;-85
2023/02/08 09:11:40;;;;;;;30.80;17.50;;;;;;;18.32;19.39;103056.30;108546;1257;73175;-86
2023/02/08 09:14:08;;;;;;;31.20;20.20;;;;;;;18.23;19.14;103057.74;109320;1257;70173;-85
2023/02/08 09:16:37;;;;;;;31.70;17.70;;;;;;;18.03;18.88;103062.99;109220;1257;73019;-83
2023/02/08 09:19:06;;;;;;;39.70;17.40;;;;;;;17.68;18.98;103063.86;108454;1257;60170;-85
2023/02/08 09:21:33;;;;;;;40.90;17.80;;;;;;;17.34;19.20;103059.38;108239;1257;59695;-83
2023/02/08 09:24:01;;;;;;;28.10;15.30;;;;;;;17.14;19.24;103053.35;108118;1256;73094;-83
2023/02/08 09:26:30;;;;;;;26.70;14.30;;;;;;;16.83;19.30;103047.65;108492;1257;70318;-85
2023/02/08 09:28:57;;;;;;;27.70;14.90;;;;;;;16.30;19.77;103047.77;108596;1258;72650;-84
2023/02/08 09:31:27;;;;;;;30.40;16.70;;;;;;;16.37;19.99;103049.96;108414;1254;59122;-84
2023/02/08 09:33:56;;;;;;;32.40;17.30;;;;;;;16.56;19.65;103049.85;108540;1253;59349;-84
2023/02/08 09:36:25;;;;;;;30.90;17.60;;;;;;;16.80;19.42;103048.77;108615;1253;73949;-84
2023/02/08 09:38:59;;;;;;;31.90;17.10;;;;;;;16.71;19.79;103049.80;108703;1253;70094;-85
2023/02/08 09:41:46;;;;;;;32.70;17.50;;;;;;;16.81;19.61;103047.70;108681;1253;73410;-83
2023/02/08 09:44:15;;;;;;;37.50;18.10;;;;;;;16.97;19.67;103047.27;108614;1258;59776;-85
2023/02/08 09:47:00;;;;;;;36.00;19.30;;;;;;;17.41;19.43;103040.59;108768;1254;61362;-84
2023/02/08 09:49:42;;;;;;;33.10;17.50;;;;;;;17.83;19.10;103032.66;108813;1254;73348;-85
2023/02/08 09:52:15;;;;;;;42.80;20.20;;;;;;;18.10;19.14;103028.87;108494;1254;70233;-85
2023/02/08 09:54:51;;;;;;;45.00;20.00;;;;;;;18.59;18.71;103027.73;108442;1254;72297;-85
2023/02/08 09:57:23;;;;;;;33.20;18.40;;;;;;;18.75;18.37;103025.21;108340;1254;60203;-85
2023/02/08 09:59:51;;;;;;;;;;;;;;;19.10;18.46;103021.09;108487;1253;61489;-85
2023/02/08 10:02:29;;;;;;;31.00;16.40;;;;;;;19.26;18.11;103019.27;108762;1253;73213;-83
2023/02/08 10:05:10;;;;;;;28.20;14.60;;;;;;;18.89;17.77;103015.45;108429;1254;70503;-85
2023/02/08 10:07:41;;;;;;;34.80;15.90;;;;;;;18.71;18.09;103011.23;108401;1254;72647;-84
2023/02/08 10:10:24;;;;;;;30.30;14.60;;;;;;;18.71;17.94;103010.73;108626;1253;60007;-85
2023/02/08 10:13:05;;;;;;;30.50;16.40;;;;;;;18.88;18.20;103008.70;108392;1254;61211;-85
2023/02/08 10:15:37;;;;;;;25.20;13.90;;;;;;;19.11;18.11;103012.36;108472;1254;71555;-84
2023/02/08 10:18:39;;;;;;;21.90;12.10;;;;;;;18.65;18.04;103008.01;108488;1254;70122;-86
2023/02/08 10:21:16;;;;;;;21.20;11.30;;;;;;;17.75;18.34;103013.61;108680;1254;73893;-85
2023/02/08 10:24:06;;;;;;;21.90;12.90;;;;;;;17.32;18.90;103016.08;108632;1257;60240;-85
2023/02/08 10:26:45;;;;;;;23.20;12.70;;;;;;;17.50;18.89;103021.42;108268;1255;60126;-83
2023/02/08 10:29:42;;;;;;;19.10;10.80;;;;;;;17.89;18.75;103017.94;108326;1254;73624;-84
2023/02/08 10:32:47;;;;;;;16.00;8.80;;;;;;;18.48;18.62;103012.34;108371;1254;70146;-85
2023/02/08 10:35:26;;;;;;;14.30;8.10;;;;;;;18.54;18.23;103014.86;108615;1254;70686;-84
2023/02/08 10:37:57;;;;;;;18.10;9.10;;;;;;;18.27;18.27;103018.70;108520;1254;60128;-84
2023/02/08 10:40:34;;;;;;;17.70;10.20;;;;;;;18.10;18.38;103019.98;108655;1254;60376;-86
2023/02/08 10:43:30;;;;;;;16.70;9.60;;;;;;;17.76;18.54;103021.95;108503;1258;72875;-84
2023/02/08 10:46:56;;;;;;;18.80;10.30;;;;;;;18.08;18.65;103016.66;108465;1254;71262;-85
2023/02/08 10:49:39;;;;;;;14.80;8.80;;;;;;;17.34;18.89;103023.67;107858;1261;73893;-85
2023/02/08 10:52:08;;;;;;;19.00;12.90;;;;;;;17.31;19.00;103018.42;107945;1262;59513;-84
2023/02/08 10:54:38;;;;;;;19.20;10.70;;;;;;;17.19;19.08;103017.23;108115;1254;60599;-84
2023/02/08 10:57:21;;;;;;;33.30;13.80;;;;;;;17.04;19.21;103016.96;108532;1254;73088;-84
2023/02/08 10:59:58;;;;;;;22.40;11.10;;;;;;;17.62;19.12;103015.83;108461;1254;70523;-84
2023/02/08 11:02:31;;;;;;;23.00;11.20;;;;;;;17.70;18.96;103016.39;108353;1257;73650;-85
2023/02/08 11:05:01;;;;;;;23.40;11.70;;;;;;;18.13;18.65;103013.70;108515;1259;59621;-85
2023/02/08 11:07:29;;;;;;;22.80;10.70;;;;;;;17.92;18.65;103016.83;108496;1254;60401;-86
2023/02/08 11:10:14;;;;;;;21.30;10.70;;;;;;;18.38;18.63;103017.39;108421;1254;71828;-84
2023/02/08 11:13:04;;;;;;;20.90;11.00;;;;;;;18.42;18.32;103016.75;108489;1254;70034;-84
2023/02/08 11:15:38;;;;;;;22.50;11.50;;;;;;;18.85;18.40;103014.81;108389;1254;72642;-83
2023/02/08 11:18:17;;;;;;;20.20;11.20;;;;;;;18.44;18.35;103012.97;109303;1254;60630;-84
2023/02/08 11:20:49;;;;;;;29.50;12.80;;;;;;;18.30;18.58;103017.73;109491;1253;59994;-84
2023/02/08 11:23:25;;;;;;;;;;;;;;;18.17;18.82;103022.50;109178;1254;72263;-85
2023/02/08 11:25:53;;;;;;;23.10;12.20;;;;;;;18.43;18.70;103022.77;108603;1254;71307;-84
2023/02/08 11:28:22;;;;;;;24.20;12.40;;;;;;;19.32;18.52;103020.32;108254;1254;73975;-84
2023/02/08 11:30:57;;;;;;;23.90;13.50;;;;;;;19.91;18.11;103010.27;108446;1254;60428;-84
2023/02/08 11:33:26;;;;;;;28.10;16.40;;;;;;;19.95;17.72;103016.02;108512;1254;59663;-85
2023/02/08 11:36:01;;;;;;;21.60;12.40;;;;;;;20.75;17.84;103015.61;108657;1254;73895;-85
2023/02/08 11:38:32;;;;;;;20.90;11.70;;;;;;;20.93;17.81;103018.03;108731;1254;71654;-84
2023/02/08 11:41:01;;;;;;;25.40;14.40;;;;;;;21.46;17.30;103020.43;108575;1254;71859;-85
2023/02/08 11:43:33;;;;;;;23.20;12.50;;;;;;;21.76;17.22;103016.83;108730;1254;58541;-85
2023/02/08 11:46:02;;;;;;;29.70;12.40;;;;;;;22.03;16.89;103016.99;108819;1254;60054;-84
2023/02/08 11:48:34;;;;;;;22.80;12.70;;;;;;;22.76;16.48;103011.54;108568;1254;74216;-84
2023/02/08 11:51:01;;;;;;;25.20;12.50;;;;;;;22.47;16.06;103019.18;108634;1254;70293;-83
2023/02/08 11:53:45;;;;;;;23.80;13.30;;;;;;;22.05;15.85;103014.95;108319;1260;70918;-84
2023/02/08 11:56:18;;;;;;;26.80;13.80;;;;;;;20.73;16.62;103014.02;108417;1254;60404;-83
2023/02/08 11:59:13;;;;;;;21.80;12.10;;;;;;;20.24;17.47;103012.44;108616;1254;60181;-83
2023/02/08 12:01:41;;;;;;;25.40;14.30;;;;;;;20.78;17.04;103011.23;108667;1254;71981;-84
2023/02/08 12:04:11;;;;;;;31.20;15.80;;;;;;;20.22;17.07;103003.59;108516;1259;70265;-83
2023/02/08 12:06:52;;;;;;;23.20;12.70;;;;;;;19.81;17.38;103006.29;108459;1255;72615;-83
2023/02/08 12:09:40;;;;;;;;;;;;;;;20.14;17.32;103005.81;108353;1257;60140;-84
2023/02/08 12:12:18;;;;;;;27.00;13.70;;;;;;;20.51;17.34;103006.23;108490;1258;59646;-84
2023/02/08 12:15:02;;;;;;;25.70;13.40;;;;;;;21.12;17.10;103003.62;108503;1258;72008;-83
2023/02/08 12:17:57;;;;;;;28.20;13.10;;;;;;;21.09;16.89;103000.85;108484;1257;70164;-84
2023/02/08 12:20:44;;;;;;;19.60;11.80;;;;;;;21.24;16.81;102999.08;108390;1256;72198;-84
2023/02/08 12:23:19;;;;;;;26.40;13.60;;;;;;;21.60;16.49;103000.25;108481;1257;60355;-85
2023/02/08 12:25:49;;;;;;;21.30;11.10;;;;;;;21.60;16.41;103002.59;108453;1258;61577;-85
2023/02/08 12:28:16;;;;;;;24.00;12.50;;;;;;;21.58;16.39;103008.58;108648;1258;74613;-84
2023/02/08 12:30:51;;;;;;;19.80;11.80;;;;;;;21.81;16.45;103004.11;108586;1254;71807;-85
2023/02/08 12:33:43;;;;;;;22.00;11.40;;;;;;;21.86;16.41;103010.16;108449;1257;73653;-85
2023/02/08 12:43:03;;;;;;;23.50;11.80;;;;;;;22.35;16.49;102997.31;108406;1258;72544;-84
2023/02/08 12:46:06;;;;;;;23.50;13.80;;;;;;;22.41;16.41;103004.40;108555;1254;70543;-84
2023/02/08 12:49:27;;;;;;;26.10;13.20;;;;;;;22.33;16.36;103007.80;108990;1255;72704;-84
2023/02/08 12:52:00;;;;;;;26.60;14.60;;;;;;;22.36;16.29;103007.83;109188;1254;60113;-84
2023/02/08 12:55:10;;;;;;;28.80;13.60;;;;;;;22.10;16.20;103002.95;109272;1254;59331;-83
2023/02/08 12:57:37;;;;;;;31.30;14.50;;;;;;;21.76;16.10;103001.95;109349;1254;73868;-85
2023/02/08 13:00:17;;;;;;;25.30;14.00;;;;;;;20.97;16.70;103002.43;109428;1254;70301;-82
2023/02/08 13:03:10;;;;;;;24.70;13.70;;;;;;;19.72;17.57;103002.45;109342;1254;72641;-83
2023/02/08 13:05:45;;;;;;;30.10;14.00;;;;;;;19.58;17.59;103004.46;109373;1256;58229;-83
2023/02/08 13:08:33;;;;;;;29.70;14.40;;;;;;;19.72;17.73;103001.03;108956;1256;60269;-84
2023/02/08 13:11:08;;;;;;;27.70;13.90;;;;;;;19.58;17.70;102995.90;108790;1261;73460;-84
2023/02/08 13:14:02;;;;;;;30.20;16.00;;;;;;;19.02;18.09;102998.16;108248;1259;70281;-84
2023/02/08 13:16:33;;;;;;;33.10;16.50;;;;;;;18.12;18.63;102997.71;108333;1262;72436;-83
2023/02/08 13:19:24;;;;;;;33.00;16.60;;;;;;;17.76;19.17;103000.98;108505;1258;60710;-84
2023/02/08 13:21:52;;;;;;;35.60;15.70;;;;;;;17.73;19.24;102992.88;109131;1257;60348;-83
2023/02/08 13:24:29;;;;;;;34.60;16.00;;;;;;;17.40;19.58;102995.48;109132;1256;73743;-83
2023/02/08 13:26:57;;;;;;;29.90;15.50;;;;;;;17.07;19.77;102993.49;108523;1257;68378;-83
2023/02/08 13:29:26;;;;;;;30.60;16.10;;;;;;;16.67;20.01;102991.86;108343;1260;72653;-83
2023/02/08 13:32:04;;;;;;;37.80;16.90;;;;;;;16.41;20.38;102990.51;108325;1258;60844;-84
2023/02/08 13:34:36;;;;;;;37.10;17.40;;;;;;;16.33;20.60;102985.32;108412;1257;61380;-83
2023/02/08 13:37:05;;;;;;;;;;;;;;;16.20;20.61;102981.62;108201;1257;73808;-84
2023/02/08 13:39:46;;;;;;;31.60;15.40;;;;;;;16.13;20.86;102978.70;108220;1257;70638;-84
2023/02/08 13:42:41;;;;;;;34.70;16.00;;;;;;;16.07;20.88;102979.85;108199;1257;73456;-83
2023/02/08 13:45:20;;;;;;;42.90;19.10;;;;;;;15.81;21.16;102975.44;108514;1260;60309;-84
2023/02/08 13:47:56;;;;;;;43.20;17.10;;;;;;;15.38;21.61;102976.14;108258;1258;60344;-84